Time;durP1;ratioP1;P1;durP2;ratioP2;P2;SDS_P1;SDS_P2;PMS_P1;PMS_P2;Temp;Humidity;BMP_temperature;BMP_pressure;BME280_temperature;BME280_humidity;BME280_pressure;Samples;Min_cycle;Max_cycle;Signal;HPM_P1;HPM_P2
2022/09/01 00:00:31;;;;;;;;;;;;;;;28.98;48.35;100689.66;104812;1304;63210;-84
2022/09/01 00:02:57;;;;;;;;;;;;;;;28.98;48.47;100689.45;104857;1305;62788;-84
2022/09/01 00:05:23;;;;;;;;;;;;;;;28.97;48.47;100688.59;104834;1304;62069;-83
2022/09/01 00:07:49;;;;;;;;;;;;;;;28.98;48.32;100687.66;104846;1303;62114;-83
2022/09/01 00:10:15;;;;;;;;;;;;;;;28.97;48.54;100688.23;104751;1305;62147;-82
2022/09/01 00:12:40;;;;;;;;;;;;;;;28.97;48.37;100690.64;104794;1305;75645;-82
2022/09/01 00:15:06;;;;;;;;;;;;;;;28.97;48.43;100692.27;104829;1305;62087;-83
2022/09/01 00:17:32;;;;;;;;;;;;;;;28.97;48.56;100690.44;104836;1305;61953;-83
2022/09/01 00:19:58;;;;;;;;;;;;;;;28.97;48.41;100690.46;104836;1303;62097;-84
2022/09/01 00:22:23;;;;;;;;;;;;;;;28.97;48.54;100689.89;104835;1303;62122;-83
2022/09/01 00:24:49;;;;;;;;;;;;;;;28.97;48.50;100690.30;104875;1305;62237;-84
2022/09/01 00:27:15;;;;;;;;;;;;;;;28.96;48.60;100689.23;104823;1305;62229;-83
2022/09/01 00:29:41;;;;;;;;;;;;;;;28.96;48.63;100684.59;104838;1305;61987;-82
2022/09/01 00:32:06;;;;;;;;;;;;;;;28.96;48.74;100687.14;104743;1305;62077;-82
2022/09/01 00:34:32;;;;;;;;;;;;;;;28.96;48.58;100685.88;104805;1305;62881;-82
2022/09/01 00:36:57;;;;;;;;;;;;;;;28.95;48.54;100686.80;104871;1305;62114;-88
2022/09/01 00:39:22;;;;;;;;;;;;;;;28.95;48.62;100688.27;104889;1305;62102;-82
2022/09/01 00:41:49;;;;;;;;;;;;;;;28.95;48.59;100687.71;104894;1305;62189;-83
2022/09/01 00:44:16;;;;;;;;;;;;;;;28.95;48.56;100683.73;104902;1305;73783;-82
2022/09/01 00:46:42;;;;;;;;;;;;;;;28.95;48.67;100681.39;104913;1305;62101;-82
2022/09/01 00:49:10;;;;;;;;;;;;;;;28.95;48.79;100680.69;104731;1305;61979;-82
2022/09/01 00:51:37;;;;;;;;;;;;;;;28.94;48.74;100680.20;104907;1305;61928;-82
2022/09/01 00:54:02;;;;;;;;;;;;;;;28.95;48.62;100682.00;104903;1305;72708;-83
2022/09/01 00:56:28;;;;;;;;;;;;;;;28.94;48.73;100680.74;104906;1305;62062;-83
2022/09/01 00:58:54;;;;;;;;;;;;;;;28.93;48.84;100678.65;104926;1305;62090;-84
2022/09/01 01:01:19;;;;;;;;;;;;;;;28.94;48.82;100677.53;104917;1305;62136;-84
2022/09/01 01:03:45;;;;;;;;;;;;;;;28.94;49.00;100679.53;104971;1305;62101;-81
2022/09/01 01:06:12;;;;;;;;;;;;;;;28.93;48.78;100679.38;104883;1305;73409;-82
2022/09/01 01:08:39;;;;;;;;;;;;;;;28.93;48.89;100676.16;104917;1305;76481;-81
2022/09/01 01:11:06;;;;;;;;;;;;;;;28.93;48.86;100671.45;104926;1305;62243;-82
2022/09/01 01:13:34;;;;;;;;;;;;;;;28.93;48.84;100675.42;104932;1305;62101;-82
2022/09/01 01:16:01;;;;;;;;;;;;;;;28.93;48.89;100672.19;104904;1305;73035;-83
2022/09/01 01:18:26;;;;;;;;;;;;;;;28.93;48.82;100673.41;104829;1305;75434;-80
2022/09/01 01:23:56;;;;;;;;;;;;;;;28.93;48.95;100679.63;104837;1304;61973;-81
2022/09/01 01:26:22;;;;;;;;;;;;;;;28.93;48.78;100676.73;104856;1305;73036;-83
2022/09/01 01:28:51;;;;;;;;;;;;;;;28.92;48.93;100675.67;104838;1305;75559;-82
2022/09/01 01:31:17;;;;;;;;;;;;;;;28.92;49.02;100676.80;104839;1305;62132;-83
2022/09/01 01:33:46;;;;;;;;;;;;;;;28.92;48.87;100675.20;104847;1305;62772;-84
2022/09/01 01:36:15;;;;;;;;;;;;;;;28.92;48.88;100674.48;104849;1305;73740;-83
2022/09/01 01:38:43;;;;;;;;;;;;;;;28.92;49.07;100666.71;104862;1305;75403;-83
2022/09/01 01:41:09;;;;;;;;;;;;;;;28.91;48.96;100669.98;104846;1305;62088;-81
2022/09/01 01:43:36;;;;;;;;;;;;;;;28.91;49.04;100667.88;104830;1305;61948;-82
2022/09/01 01:46:04;;;;;;;;;;;;;;;28.91;48.93;100665.20;104827;1305;74114;-83
2022/09/01 01:48:33;;;;;;;;;;;;;;;28.91;49.04;100665.56;104745;1305;75594;-84
2022/09/01 01:50:59;;;;;;;;;;;;;;;28.90;49.11;100660.36;104836;1305;62635;-86
2022/09/01 01:53:25;;;;;;;;;;;;;;;28.91;49.06;100655.77;104841;1305;62096;-82
2022/09/01 01:55:50;;;;;;;;;;;;;;;28.90;48.90;100649.80;104865;1305;62187;-82
2022/09/01 01:58:18;;;;;;;;;;;;;;;28.90;49.01;100654.52;104870;1305;62694;-85
2022/09/01 02:00:46;;;;;;;;;;;;;;;28.90;49.16;100660.71;104868;1305;62210;-84
2022/09/01 02:03:16;;;;;;;;;;;;;;;28.90;48.90;100661.61;104899;1305;62047;-82
2022/09/01 02:05:42;;;;;;;;;;;;;;;28.90;49.02;100665.23;104898;1305;72899;-82
2022/09/01 02:08:09;;;;;;;;;;;;;;;28.89;49.05;100665.11;104850;1304;61983;-81
2022/09/01 02:10:38;;;;;;;;;;;;;;;28.90;48.97;100666.67;104784;1305;61981;-83
2022/09/01 02:13:05;;;;;;;;;;;;;;;28.90;49.14;100668.36;104892;1304;61965;-83
2022/09/01 02:15:43;;;;;;;;;;;;;;;28.90;49.01;100667.80;104832;1304;72830;-83
2022/09/01 02:18:18;;;;;;;;;;;;;;;28.89;48.88;100671.11;104846;1305;76510;-83
2022/09/01 02:20:46;;;;;;;;;;;;;;;28.90;49.19;100674.17;104846;1305;62071;-83
2022/09/01 02:23:14;;;;;;;;;;;;;;;28.89;49.07;100676.04;104874;1305;61960;-83
2022/09/01 02:25:41;;;;;;;;;;;;;;;28.89;49.10;100673.50;104861;1305;72835;-80
2022/09/01 02:28:11;;;;;;;;;;;;;;;28.89;49.15;100676.75;104876;1306;75613;-83
2022/09/01 02:30:40;;;;;;;;;;;;;;;28.89;49.17;100675.86;104855;1305;62101;-83
2022/09/01 02:33:08;;;;;;;;;;;;;;;28.88;49.07;100667.59;104874;1304;62040;-82
2022/09/01 02:35:36;;;;;;;;;;;;;;;28.88;48.90;100672.69;104853;1305;73913;-80
2022/09/01 02:38:03;;;;;;;;;;;;;;;28.88;49.25;100669.42;104828;1305;76031;-82
2022/09/01 02:40:30;;;;;;;;;;;;;;;28.88;49.26;100671.83;104876;1305;60882;-83
2022/09/01 02:42:57;;;;;;;;;;;;;;;28.88;49.03;100667.14;104877;1305;61959;-85
2022/09/01 02:45:23;;;;;;;;;;;;;;;28.88;49.25;100663.33;104868;1305;72698;-83
2022/09/01 02:47:50;;;;;;;;;;;;;;;28.87;48.89;100662.46;104860;1305;62085;-84
2022/09/01 02:50:17;;;;;;;;;;;;;;;28.87;49.20;100663.71;104832;1305;62207;-85
2022/09/01 02:52:51;;;;;;;;;;;;;;;28.87;49.10;100659.81;104787;1305;62104;-82
2022/09/01 02:55:19;;;;;;;;;;;;;;;28.87;49.23;100657.64;104867;1305;73682;-83
2022/09/01 02:57:47;;;;;;;;;;;;;;;28.86;49.01;100655.49;104824;1305;74412;-87
2022/09/01 03:00:21;;;;;;;;;;;;;;;28.86;49.19;100654.09;104844;1305;62100;-84
2022/09/01 03:02:48;;;;;;;;;;;;;;;28.86;49.04;100653.18;104888;1305;62117;-83
2022/09/01 03:05:15;;;;;;;;;;;;;;;28.86;49.07;100652.98;103724;1304;1603010;-83
2022/09/01 03:07:41;;;;;;;;;;;;;;;28.85;49.12;100655.95;104831;1305;75588;-83
2022/09/01 03:10:08;;;;;;;;;;;;;;;28.85;48.99;100651.44;104846;1305;62061;-83
2022/09/01 03:12:34;;;;;;;;;;;;;;;28.85;49.12;100657.24;104882;1305;61328;-83
2022/09/01 03:15:00;;;;;;;;;;;;;;;28.85;49.22;100657.63;104847;1303;62258;-83
2022/09/01 03:17:25;;;;;;;;;;;;;;;28.85;49.34;100646.92;104871;1304;62225;-83
2022/09/01 03:19:51;;;;;;;;;;;;;;;28.85;49.10;100648.98;104825;1305;62115;-83
2022/09/01 03:22:16;;;;;;;;;;;;;;;28.85;49.14;100651.27;104897;1305;62075;-83
2022/09/01 03:24:42;;;;;;;;;;;;;;;28.85;49.18;100651.89;104863;1304;60712;-83
2022/09/01 03:27:10;;;;;;;;;;;;;;;28.85;49.17;100656.73;104845;1303;62064;-83
2022/09/01 03:29:37;;;;;;;;;;;;;;;28.84;49.38;100652.09;104863;1306;76427;-82
2022/09/01 03:32:03;;;;;;;;;;;;;;;28.83;49.09;100654.38;104844;1305;62028;-83
2022/09/01 03:34:28;;;;;;;;;;;;;;;28.84;49.19;100660.81;104839;1305;62039;-82
2022/09/01 03:36:55;;;;;;;;;;;;;;;28.83;49.12;100658.73;104825;1304;62107;-83
2022/09/01 03:39:21;;;;;;;;;;;;;;;28.83;49.09;100659.31;104850;1305;62166;-82
2022/09/01 03:41:46;;;;;;;;;;;;;;;28.83;48.96;100658.94;104872;1305;63232;-83
2022/09/01 03:44:15;;;;;;;;;;;;;;;28.83;48.71;100659.34;104853;1303;62097;-83
2022/09/01 03:46:42;;;;;;;;;;;;;;;28.81;48.69;100659.84;104877;1303;62036;-83
2022/09/01 03:49:11;;;;;;;;;;;;;;;28.80;48.52;100661.29;104831;1305;62225;-82
2022/09/01 03:51:37;;;;;;;;;;;;;;;28.78;48.56;100664.36;104797;1304;62431;-83
2022/09/01 03:54:03;;;;;;;;;;;;;;;28.76;48.26;100666.89;104819;1304;62065;-82
2022/09/01 03:56:28;;;;;;;;;;;;;;;28.75;48.11;100669.73;104852;1305;62911;-82
2022/09/01 03:58:55;;;;;;;;;;;;;;;28.74;48.12;100668.76;104846;1305;62119;-84
2022/09/01 04:01:20;;;;;;;;;;;;;;;28.73;47.92;100666.52;104818;1305;62066;-89
2022/09/01 04:03:47;;;;;;;;;;;;;;;28.72;47.66;100666.06;104822;1305;62076;-83
2022/09/01 04:06:13;;;;;;;;;;;;;;;28.72;47.72;100664.85;104825;1305;61962;-82
2022/09/01 04:08:40;;;;;;;;;;;;;;;28.71;47.39;100663.11;104835;1305;62111;-83
2022/09/01 04:11:12;;;;;;;;;;;;;;;28.70;47.11;100663.55;104848;1304;62086;-84
2022/09/01 04:13:39;;;;;;;;;;;;;;;28.70;47.07;100662.69;104845;1304;62054;-82
2022/09/01 04:18:03;;;;;;;;;;;;;;;28.69;46.82;100664.21;104855;1305;74036;-83
2022/09/01 04:18:51;;;;;;;;;;;;;;;28.67;46.87;100661.70;104745;1305;75611;-83
2022/09/01 04:21:18;;;;;;;;;;;;;;;28.64;46.71;100660.17;104823;1304;62192;-83
2022/09/01 04:23:45;;;;;;;;;;;;;;;28.62;46.41;100659.88;104847;1302;62505;-83
2022/09/01 04:26:13;;;;;;;;;;;;;;;28.59;46.30;100659.95;104837;1305;72479;-84
2022/09/01 04:28:40;;;;;;;;;;;;;;;28.57;46.16;100659.96;104827;1305;77033;-82
2022/09/01 04:31:09;;;;;;;;;;;;;;;28.56;46.00;100661.77;104644;1305;61989;-80
2022/09/01 04:33:38;;;;;;;;;;;;;;;28.54;45.83;100665.93;104630;1304;62012;-81
2022/09/01 04:36:18;;;;;;;;;;;;;;;28.52;45.80;100663.23;104603;1304;73077;-81
2022/09/01 04:38:43;;;;;;;;;;;;;;;28.51;45.60;100666.85;104727;1306;75421;-82
2022/09/01 04:41:09;;;;;;;;;;;;;;;28.50;45.69;100667.30;104638;1303;62166;-82
2022/09/01 04:43:34;;;;;;;;;;;;;;;28.49;45.48;100667.56;104689;1305;62091;-82
2022/09/01 04:46:00;;;;;;;;;;;;;;;28.48;45.32;100667.16;104686;1303;62105;-82
2022/09/01 04:48:25;;;;;;;;;;;;;;;28.47;45.09;100665.31;104666;1305;62149;-84
2022/09/01 04:50:51;;;;;;;;;;;;;;;28.46;45.02;100664.98;104738;1304;76277;-82
2022/09/01 04:53:18;;;;;;;;;;;;;;;28.46;44.97;100665.57;104782;1305;62036;-83
2022/09/01 04:55:44;;;;;;;;;;;;;;;28.46;44.67;100667.58;104827;1304;62018;-81
2022/09/01 04:58:16;;;;;;;;;;;;;;;28.46;45.03;100667.21;104900;1302;62001;-82
2022/09/01 05:00:46;;;;;;;;;;;;;;;28.45;44.69;100672.33;104867;1301;75619;-82
2022/09/01 05:03:12;;;;;;;;;;;;;;;28.46;44.54;100675.36;104903;1302;62044;-84
2022/09/01 05:05:41;;;;;;;;;;;;;;;28.46;44.60;100675.02;104853;1302;62095;-82
2022/09/01 05:08:11;;;;;;;;;;;;;;;28.46;44.61;100672.67;104850;1302;72529;-82
2022/09/01 05:10:39;;;;;;;;;;;;;;;28.46;44.14;100673.39;104813;1305;76693;-85
2022/09/01 05:13:08;;;;;;;;;;;;;;;28.46;44.32;100672.98;104839;1305;61992;-80
2022/09/01 05:15:36;;;;;;;;;;;;;;;28.46;44.01;100674.91;104728;1304;61970;-81
2022/09/01 05:18:08;;;;;;;;;;;;;;;28.47;43.94;100677.91;104837;1303;73113;-83
2022/09/01 05:20:39;;;;;;;;;;;;;;;28.47;44.08;100676.86;104828;1305;76589;-84
2022/09/01 05:23:05;;;;;;;;;;;;;;;28.47;43.91;100681.75;104885;1305;62033;-82
2022/09/01 05:25:37;;;;;;;;;;;;;;;28.48;43.76;100681.65;104777;1305;62074;-82
2022/09/01 05:28:03;;;;;;;;;;;;;;;28.48;43.74;100683.27;104650;1302;72829;-82
2022/09/01 05:30:28;;;;;;;;;;;;;;;28.48;43.74;100683.92;104716;1302;62081;-82
2022/09/01 05:32:54;;;;;;;;;;;;;;;28.49;43.82;100684.83;104698;1304;62135;-80
2022/09/01 05:35:23;;;;;;;;;;;;;;;28.48;43.56;100685.58;104762;1302;62129;-83
2022/09/01 05:37:50;;;;;;;;;;;;;;;28.49;43.74;100685.72;104628;1302;72904;-82
2022/09/01 05:40:16;;;;;;;;;;;;;;;28.50;43.50;100682.86;104741;1303;76708;-83
2022/09/01 05:42:44;;;;;;;;;;;;;;;28.50;43.64;100684.27;104749;1301;62207;-83
2022/09/01 05:45:13;;;;;;;;;;;;;;;28.51;43.43;100681.30;104777;1303;62174;-82
2022/09/01 05:47:38;;;;;;;;;;;;;;;28.50;43.40;100683.25;104751;1303;72509;-82
2022/09/01 05:50:04;;;;;;;;;;;;;;;28.47;43.43;100683.70;104701;1302;62192;-81
2022/09/01 05:52:33;;;;;;;;;;;;;;;28.44;43.26;100689.43;104609;1305;62085;-82
2022/09/01 05:54:58;;;;;;;;;;;;;;;28.42;43.42;100687.48;104597;1302;62058;-81
2022/09/01 05:57:25;;;;;;;;;;;;;;;28.39;43.43;100688.05;104590;1303;61989;-80
2022/09/01 05:59:52;;;;;;;;;;;;;;;28.36;43.03;100684.87;104619;1305;62049;-81
2022/09/01 06:02:20;;;;;;;;;;;;;;;28.32;43.06;100688.41;104613;1303;62063;-83
2022/09/01 06:04:45;;;;;;;;;;;;;;;28.28;43.06;100690.04;104716;1305;62139;-82
2022/09/01 06:07:13;;;;;;;;;;;;;;;28.29;42.87;100691.45;104682;1305;62033;-82
2022/09/01 06:09:44;;;;;;;;;;;;;;;28.28;42.95;100695.48;105011;1303;60327;-82
2022/09/01 06:12:16;;;;;;;;;;;;;;;28.27;43.06;100696.99;104581;1304;61884;-82
2022/09/01 06:14:42;;;;;;;;;;;;;;;28.26;42.95;100696.21;104924;1305;62232;-82
2022/09/01 06:17:09;;;;;;;;;;;;;;;28.27;42.83;100698.28;104720;1305;60265;-82
2022/09/01 06:19:35;;;;;;;;;;;;;;;28.29;42.79;100702.77;104627;1305;76437;-83
2022/09/01 06:22:01;;;;;;;;;;;;;;;28.30;42.65;100705.05;104610;1305;62101;-82
2022/09/01 06:24:27;;;;;;;;;;;;;;;28.28;42.62;100708.64;104749;1305;62193;-84
2022/09/01 06:26:53;;;;;;;;;;;;;;;28.26;42.45;100717.75;104777;1305;62099;-82
2022/09/01 06:29:19;;;;;;;;;;;;;;;28.25;42.65;100717.77;104738;1305;62081;-82
2022/09/01 06:31:48;;;;;;;;;;;;;;;28.23;42.59;100717.50;104796;1305;62094;-82
2022/09/01 06:34:16;;;;;;;;;;;;;;;28.19;42.31;100719.52;104704;1303;63396;-82
2022/09/01 06:36:42;;;;;;;;;;;;;;;28.18;42.35;100721.63;104675;1303;72771;-81
2022/09/01 06:39:18;;;;;;;;;;;;;;;28.19;42.20;100726.74;104675;1303;62252;-82
2022/09/01 06:41:48;;;;;;;;;;;;;;;28.23;42.32;100724.04;104767;1305;61943;-82
2022/09/01 06:44:14;;;;;;;;;;;;;;;28.24;42.18;100728.63;104744;1305;61961;-82
2022/09/01 06:46:39;;;;;;;;;;;;;;;28.21;41.99;100730.17;104743;1303;62855;-82
2022/09/01 06:49:04;;;;;;;;;;;;;;;28.18;42.13;100732.86;104601;1303;62071;-80
2022/09/01 06:51:30;;;;;;;;;;;;;;;28.16;41.95;100731.40;104716;1305;62135;-82
2022/09/01 06:53:58;;;;;;;;;;;;;;;28.14;42.07;100733.51;104675;1305;62216;-81
2022/09/01 06:56:27;;;;;;;;;;;;;;;28.12;41.90;100732.91;104631;1305;62108;-82
2022/09/01 06:58:52;;;;;;;;;;;;;;;28.12;42.00;100732.75;104666;1304;72678;-84
2022/09/01 07:01:19;;;;;;;;;;;;;;;28.11;41.64;100735.23;104680;1303;62188;-81
2022/09/01 07:03:46;;;;;;;;;;;;;;;28.11;41.71;100740.48;104681;1305;62003;-83
2022/09/01 07:06:13;;;;;;;;;;;;;;;28.12;41.80;100738.55;104738;1304;60174;-82
2022/09/01 07:08:40;;;;;;;;;;;;;;;28.14;41.67;100743.98;104727;1305;74061;-82
2022/09/01 07:11:15;;;;;;;;;;;;;;;28.16;41.48;100743.54;104592;1305;62280;-82
2022/09/01 07:13:41;;;;;;;;;;;;;;;28.15;41.61;100743.15;104389;1305;62001;-81
2022/09/01 07:16:08;;;;;;;;;;;;;;;28.14;41.58;100743.77;104854;1305;61712;-81
2022/09/01 07:18:34;;;;;;;;;;;;;;;28.15;41.70;100746.55;104218;1305;74606;-81
2022/09/01 07:21:01;;;;;;;;;;;;;;;28.16;41.52;100751.54;104402;1303;62274;-81
2022/09/01 07:23:28;;;;;;;;;;;;;;;28.17;41.43;100752.50;105271;1302;60284;-81
2022/09/01 07:25:57;;;;;;;;;;;;;;;28.13;41.66;100751.48;104152;1306;61957;-82
2022/09/01 07:28:23;;;;;;;;;;;;;;;28.13;41.44;100751.34;104552;1305;73927;-82
2022/09/01 07:30:51;;;;;;;;;;;;;;;28.13;41.40;100750.71;104169;1305;62236;-80
2022/09/01 07:33:19;;;;;;;;;;;;;;;28.13;41.18;100750.95;104381;1302;61948;-82
2022/09/01 07:35:45;;;;;;;;;;;;;;;28.10;41.27;100746.88;105669;1303;61509;-81
2022/09/01 07:38:11;;;;;;;;;;;;;;;28.06;41.39;100745.96;105761;1303;59970;-81
2022/09/01 07:40:37;;;;;;;;;;;;;;;28.06;41.29;100748.02;105449;1305;60080;-81
2022/09/01 07:43:07;;;;;;;;;;;;;;;27.99;41.12;100746.00;105249;1304;63555;-81
2022/09/01 07:45:34;;;;;;;;;;;;;;;27.87;41.15;100748.12;104572;1303;63020;-81
2022/09/01 07:48:05;;;;;;;;;;;;;;;27.71;41.12;100748.22;105188;1304;72921;-81
2022/09/01 07:50:34;;;;;;;;;;;;;;;27.62;41.20;100749.10;104704;1303;76480;-81
2022/09/01 07:53:00;;;;;;;;;;;;;;;27.57;41.30;100746.76;104783;1304;62035;-82
2022/09/01 07:55:28;;;;;;;;;;;;;;;27.53;41.44;100743.16;104619;1305;62080;-82
2022/09/01 07:57:53;;;;;;;;;;;;;;;27.51;41.24;100737.01;104622;1305;73851;-82
2022/09/01 08:00:20;;;;;;;;;;;;;;;27.51;41.53;100734.39;104667;1303;62042;-83
2022/09/01 08:02:46;;;;;;;;;;;;;;;27.51;41.65;100732.55;104781;1303;60365;-83
2022/09/01 08:05:13;;;;;;;;;;;;;;;27.46;41.31;100731.80;104717;1305;62235;-82
2022/09/01 08:07:38;;;;;;;;;;;;;;;27.30;41.32;100736.75;104686;1305;61960;-83
2022/09/01 08:10:04;;;;;;;;;;;;;;;27.24;41.43;100741.49;104592;1305;62090;-82
2022/09/01 08:12:30;;;;;;;;;;;;;;;27.20;41.46;100740.50;104621;1304;62201;-81
2022/09/01 08:14:55;;;;;;;;;;;;;;;27.22;41.44;100737.34;104605;1305;62290;-82
2022/09/01 08:17:21;;;;;;;;;;;;;;;27.24;41.37;100732.81;104607;1305;62100;-81
2022/09/01 08:19:46;;;;;;;;;;;;;;;27.27;41.49;100722.01;104643;1303;62071;-82
2022/09/01 08:22:12;;;;;;;;;;;;;;;27.33;41.35;100718.98;104397;1305;62203;-82
2022/09/01 08:24:38;;;;;;;;;;;;;;;27.39;41.08;100718.52;104409;1305;62098;-83
2022/09/01 08:27:03;;;;;;;;;;;;;;;27.40;41.30;100720.63;104533;1305;62189;-84
2022/09/01 08:29:29;;;;;;;;;;;;;;;27.44;41.41;100721.84;104720;1305;62132;-83
2022/09/01 08:31:55;;;;;;;;;;;;;;;27.47;41.59;100721.41;104537;1303;73397;-82
2022/09/01 08:34:21;;;;;;;;;;;;;;;27.52;41.30;100719.60;104542;1305;62149;-83
2022/09/01 08:36:47;;;;;;;;;;;;;;;27.55;41.42;100718.90;104412;1305;62884;-81
2022/09/01 08:39:12;;;;;;;;;;;;;;;27.57;41.45;100716.92;104270;1305;62175;-81
2022/09/01 08:41:57;;;;;;;;;;;;;;;27.57;41.35;100719.60;104492;1305;62097;-81
2022/09/01 08:44:32;;;;;;;;;;;;;;;27.48;41.44;100721.63;104640;1303;75940;-81
2022/09/01 08:47:02;;;;;;;;;;;;;;;27.45;41.04;100720.30;104613;1305;62056;-82
2022/09/01 08:49:28;;;;;;;;;;;;;;;27.42;41.16;100717.18;104716;1305;61844;-83
2022/09/01 08:51:53;;;;;;;;;;;;;;;27.42;40.93;100714.95;104607;1305;60002;-81
2022/09/01 08:54:20;;;;;;;;;;;;;;;27.43;41.07;100711.98;104647;1305;60918;-81
2022/09/01 08:56:46;;;;;;;;;;;;;;;27.44;40.98;100710.63;104679;1305;62079;-83
2022/09/01 08:59:12;;;;;;;;;;;;;;;27.45;41.05;100707.35;104616;1304;62252;-82
2022/09/01 09:01:40;;;;;;;;;;;;;;;27.48;40.74;100705.21;104665;1305;60930;-82
2022/09/01 09:04:26;;;;;;;;;;;;;;;27.55;40.89;100704.70;104726;1302;62093;-80
2022/09/01 09:06:54;;;;;;;;;;;;;;;27.63;40.75;100701.32;104686;1302;61976;-81
2022/09/01 09:09:19;;;;;;;;;;;;;;;27.70;40.66;100694.80;104730;1302;60258;-83
2022/09/01 09:11:49;;;;;;;;;;;;;;;27.75;40.65;100695.60;104690;1302;62122;-83
2022/09/01 09:14:26;;;;;;;;;;;;;;;27.79;40.61;100693.06;104995;1303;76383;-83
2022/09/01 09:16:52;;;;;;;;;;;;;;;27.84;40.20;100690.04;104826;1302;62219;-81
2022/09/01 09:19:17;;;;;;;;;;;;;;;27.86;40.32;100686.50;104755;1302;62113;-81
2022/09/01 09:21:44;;;;;;;;;;;;;;;27.90;40.32;100684.70;104696;1302;62096;-81
2022/09/01 09:24:28;;;;;;;;;;;;;;;27.93;40.23;100677.16;104678;1302;60339;-81
2022/09/01 09:27:01;;;;;;;;;;;;;;;27.95;40.00;100678.21;104766;1302;62052;-82
2022/09/01 09:29:26;;;;;;;;;;;;;;;27.93;39.95;100682.41;105507;1302;61260;-81
2022/09/01 09:32:03;;;;;;;;;;;;;;;27.85;39.69;100682.27;104710;1302;62199;-82
2022/09/01 09:34:31;;;;;;;;;;;;;;;27.78;39.65;100677.78;104705;1302;76783;-81
2022/09/01 09:37:14;;;;;;;;;;;;;;;27.74;40.11;100672.58;104667;1305;62002;-82
2022/09/01 09:39:39;;;;;;;;;;;;;;;27.64;39.91;100674.08;104671;1305;61884;-82
2022/09/01 09:42:07;;;;;;;;;;;;;;;27.51;40.05;100665.89;104660;1304;62130;-82
2022/09/01 09:44:33;;;;;;;;;;;;;;;27.50;40.19;100668.86;105389;1303;75360;-82
2022/09/01 09:47:00;;;;;;;;;;;;;;;27.57;40.48;100670.52;104580;1305;62251;-81
2022/09/01 09:49:27;;;;;;;;;;;;;;;27.65;40.37;100672.55;104668;1304;62172;-81
2022/09/01 09:51:53;;;;;;;;;;;;;;;27.73;40.18;100676.60;104675;1304;73718;-81
2022/09/01 09:54:19;;;;;;;;;;;;;;;27.80;40.40;100672.52;104644;1303;62112;-82
2022/09/01 09:56:45;;;;;;;;;;;;;;;27.86;40.22;100674.09;104619;1305;62117;-82
2022/09/01 09:59:15;;;;;;;;;;;;;;;27.91;40.05;100673.92;104640;1305;62167;-81
2022/09/01 10:01:41;;;;;;;;;;;;;;;27.96;39.97;100678.07;104920;1305;74097;-81
2022/09/01 10:04:06;;;;;;;;;;;;;;;27.99;39.92;100671.10;104626;1303;62267;-81
2022/09/01 10:06:33;;;;;;;;;;;;;;;28.03;40.04;100673.06;104756;1306;62139;-82
2022/09/01 10:09:00;;;;;;;;;;;;;;;28.07;39.91;100664.34;104700;1305;62200;-81
2022/09/01 10:11:36;;;;;;;;;;;;;;;28.09;39.73;100669.70;104710;1305;62194;-81
2022/09/01 10:14:05;;;;;;;;;;;;;;;28.12;39.91;100663.63;104763;1305;76331;-81
2022/09/01 10:16:31;;;;;;;;;;;;;;;28.15;39.87;100665.14;104877;1302;62033;-81
2022/09/01 10:19:00;;;;;;;;;;;;;;;28.18;39.77;100663.76;104777;1306;62201;-81
2022/09/01 10:21:28;;;;;;;;;;;;;;;28.20;39.88;100661.73;104639;1306;72674;-81
2022/09/01 10:23:54;;;;;;;;;;;;;;;28.22;39.87;100654.86;104675;1305;74537;-81
2022/09/01 10:26:25;;;;;;;;;;;;;;;28.24;39.92;100652.46;104688;1304;62480;-81
2022/09/01 10:29:01;;;;;;;;;;;;;;;28.25;39.97;100649.28;104623;1305;61981;-80
2022/09/01 10:31:27;;;;;;;;;;;;;;;28.26;39.82;100649.50;104632;1305;72947;-80
2022/09/01 10:33:52;;;;;;;;;;;;;;;28.28;39.84;100650.24;104657;1303;62200;-80
2022/09/01 10:36:19;;;;;;;;;;;;;;;28.30;39.69;100647.72;104723;1305;62735;-83
2022/09/01 10:38:47;;;;;;;;;;;;;;;28.31;39.56;100650.60;104733;1305;59431;-81
2022/09/01 10:41:33;;;;;;;;;;;;;;;28.32;39.75;100649.80;104765;1302;63068;-81
2022/09/01 10:44:07;;;;;;;;;;;;;;;28.33;39.60;100649.15;104650;1305;76641;-79
2022/09/01 10:46:32;;;;;;;;;;;;;;;28.33;39.56;100645.40;104703;1305;62445;-81
2022/09/01 10:48:58;;;;;;;;;;;;;;;28.33;39.66;100642.27;104716;1304;60092;-81
2022/09/01 10:51:27;;;;;;;;;;;;;;;28.34;39.60;100637.25;104684;1305;62136;-81
2022/09/01 10:53:52;;;;;;;;;;;;;;;28.35;39.72;100640.41;104695;1305;76203;-81
2022/09/01 10:56:21;;;;;;;;;;;;;;;28.37;39.62;100638.28;104687;1305;62235;-82
2022/09/01 10:58:52;;;;;;;;;;;;;;;28.37;39.93;100636.39;105757;1304;60016;-80
2022/09/01 11:01:37;;;;;;;;;;;;;;;28.39;39.69;100635.69;104902;1305;62874;-81
2022/09/01 11:04:02;;;;;;;;;;;;;;;28.39;39.59;100622.59;104711;1305;75586;-81
2022/09/01 11:06:40;;;;;;;;;;;;;;;28.41;39.72;100620.11;104694;1305;62067;-81
2022/09/01 11:09:06;;;;;;;;;;;;;;;28.41;39.70;100622.46;104737;1304;61991;-82
2022/09/01 11:11:42;;;;;;;;;;;;;;;28.42;39.63;100613.84;104610;1304;62102;-82
2022/09/01 11:14:17;;;;;;;;;;;;;;;28.42;39.48;100617.59;104557;1305;75546;-81
2022/09/01 11:16:43;;;;;;;;;;;;;;;28.42;39.69;100611.94;104746;1305;61947;-80
2022/09/01 11:19:27;;;;;;;;;;;;;;;28.44;39.80;100609.86;104695;1305;60202;-81
2022/09/01 11:22:08;;;;;;;;;;;;;;;28.45;39.66;100612.63;104648;1305;73707;-80
2022/09/01 11:24:37;;;;;;;;;;;;;;;28.46;39.64;100603.98;104647;1302;76390;-82
2022/09/01 11:27:02;;;;;;;;;;;;;;;28.48;39.47;100603.42;104805;1302;62135;-81
2022/09/01 11:29:47;;;;;;;;;;;;;;;28.49;39.66;100604.95;104785;1302;62089;-81
2022/09/01 11:32:12;;;;;;;;;;;;;;;28.49;39.70;100598.23;104675;1302;73820;-81
2022/09/01 11:34:41;;;;;;;;;;;;;;;28.50;39.63;100601.41;104656;1302;62199;-81
2022/09/01 11:37:11;;;;;;;;;;;;;;;28.51;39.67;100602.05;104671;1302;62109;-81
2022/09/01 11:39:49;;;;;;;;;;;;;;;28.51;39.68;100597.63;104872;1302;61961;-80
2022/09/01 11:42:28;;;;;;;;;;;;;;;28.52;39.66;100600.11;104618;1305;72766;-80
2022/09/01 11:45:04;;;;;;;;;;;;;;;28.53;39.52;100600.17;104676;1306;75997;-82
2022/09/01 11:47:31;;;;;;;;;;;;;;;28.53;39.73;100602.86;104755;1305;62098;-81
2022/09/01 11:50:01;;;;;;;;;;;;;;;28.54;39.65;100601.34;104822;1303;61986;-83
2022/09/01 11:52:28;;;;;;;;;;;;;;;28.54;39.63;100600.21;104795;1305;73025;-81
2022/09/01 11:54:54;;;;;;;;;;;;;;;28.55;39.46;100591.48;104796;1303;76447;-81
2022/09/01 11:57:21;;;;;;;;;;;;;;;28.55;39.45;100592.75;104822;1305;60053;-81
2022/09/01 11:59:46;;;;;;;;;;;;;;;28.54;39.73;100593.69;104848;1304;62034;-82
2022/09/01 12:02:23;;;;;;;;;;;;;;;28.55;39.53;100591.46;104816;1305;62127;-82
2022/09/01 12:04:49;;;;;;;;;;;;;;;28.54;39.65;100584.45;104823;1304;76642;-82
2022/09/01 12:07:27;;;;;;;;;;;;;;;28.54;39.70;100580.91;104840;1303;62100;-81
2022/09/01 12:09:53;;;;;;;;;;;;;;;28.54;39.55;100579.27;104742;1303;61986;-81
2022/09/01 12:12:30;;;;;;;;;;;;;;;28.53;39.55;100581.48;104732;1303;62065;-82
2022/09/01 12:14:57;;;;;;;;;;;;;;;28.53;39.62;100579.88;104747;1302;76533;-81
2022/09/01 12:17:22;;;;;;;;;;;;;;;28.53;39.61;100577.50;104917;1303;62114;-80
2022/09/01 12:19:48;;;;;;;;;;;;;;;28.54;39.57;100573.09;104739;1302;62065;-81
2022/09/01 12:22:14;;;;;;;;;;;;;;;28.54;39.49;100571.33;104605;1303;62226;-80
2022/09/01 12:24:42;;;;;;;;;;;;;;;28.54;39.72;100572.16;104666;1306;62078;-82
2022/09/01 12:27:08;;;;;;;;;;;;;;;28.54;39.61;100566.88;104715;1303;62084;-83
2022/09/01 12:29:33;;;;;;;;;;;;;;;28.55;39.63;100564.61;104749;1303;62183;-80
2022/09/01 12:31:59;;;;;;;;;;;;;;;28.56;39.78;100563.63;104784;1302;62075;-81